sensor_id;sensor_type;location;lat;lon;timestamp;temperature;humidity
4934;DHT22;2482;49.154;8.254;2023-04-24T00:02:00;10.80;99.90
4934;DHT22;2482;49.154;8.254;2023-04-24T00:04:27;11.00;99.90
4934;DHT22;2482;49.154;8.254;2023-04-24T00:06:54;11.00;99.90
4934;DHT22;2482;49.154;8.254;2023-04-24T00:09:23;11.00;99.90
4934;DHT22;2482;49.154;8.254;2023-04-24T00:11:50;11.00;99.90
4934;DHT22;2482;49.154;8.254;2023-04-24T00:14:18;11.00;99.90
4934;DHT22;2482;49.154;8.254;2023-04-24T00:16:45;10.90;99.90
4934;DHT22;2482;49.154;8.254;2023-04-24T00:19:12;10.90;99.90
4934;DHT22;2482;49.154;8.254;2023-04-24T00:21:40;10.90;99.90
4934;DHT22;2482;49.154;8.254;2023-04-24T00:24:08;10.90;99.90
4934;DHT22;2482;49.154;8.254;2023-04-24T00:26:37;10.90;99.90
4934;DHT22;2482;49.154;8.254;2023-04-24T00:29:04;10.80;99.90
4934;DHT22;2482;49.154;8.254;2023-04-24T00:31:32;10.80;99.90
4934;DHT22;2482;49.154;8.254;2023-04-24T00:34:02;10.80;99.90
4934;DHT22;2482;49.154;8.254;2023-04-24T00:36:29;10.80;99.90
4934;DHT22;2482;49.154;8.254;2023-04-24T00:38:58;10.80;99.90
4934;DHT22;2482;49.154;8.254;2023-04-24T00:41:25;10.90;99.90
4934;DHT22;2482;49.154;8.254;2023-04-24T00:43:52;10.80;99.90
4934;DHT22;2482;49.154;8.254;2023-04-24T00:46:20;10.80;99.90
4934;DHT22;2482;49.154;8.254;2023-04-24T00:48:48;10.80;99.90
4934;DHT22;2482;49.154;8.254;2023-04-24T00:51:15;10.80;99.90
4934;DHT22;2482;49.154;8.254;2023-04-24T00:53:42;10.80;99.90
4934;DHT22;2482;49.154;8.254;2023-04-24T00:56:09;10.90;99.90
4934;DHT22;2482;49.154;8.254;2023-04-24T00:58:36;10.80;99.90
4934;DHT22;2482;49.154;8.254;2023-04-24T01:01:04;10.90;99.90
4934;DHT22;2482;49.154;8.254;2023-04-24T01:03:34;10.90;99.90
4934;DHT22;2482;49.154;8.254;2023-04-24T01:06:04;10.80;99.90
4934;DHT22;2482;49.154;8.254;2023-04-24T01:08:34;10.90;99.90
4934;DHT22;2482;49.154;8.254;2023-04-24T01:11:04;10.90;99.90
4934;DHT22;2482;49.154;8.254;2023-04-24T01:13:32;10.90;99.90
4934;DHT22;2482;49.154;8.254;2023-04-24T01:16:00;10.90;99.90
4934;DHT22;2482;49.154;8.254;2023-04-24T01:18:27;10.90;99.90
4934;DHT22;2482;49.154;8.254;2023-04-24T01:20:58;11.00;99.90
4934;DHT22;2482;49.154;8.254;2023-04-24T01:23:26;11.00;99.90
4934;DHT22;2482;49.154;8.254;2023-04-24T01:25:54;10.90;99.90
4934;DHT22;2482;49.154;8.254;2023-04-24T01:28:21;11.00;99.90
4934;DHT22;2482;49.154;8.254;2023-04-24T01:30:49;10.90;99.90
4934;DHT22;2482;49.154;8.254;2023-04-24T01:33:16;11.00;99.90
4934;DHT22;2482;49.154;8.254;2023-04-24T01:35:43;11.00;99.90
4934;DHT22;2482;49.154;8.254;2023-04-24T01:38:11;10.90;99.90
4934;DHT22;2482;49.154;8.254;2023-04-24T01:40:38;11.00;99.90
4934;DHT22;2482;49.154;8.254;2023-04-24T01:43:05;11.10;99.90
4934;DHT22;2482;49.154;8.254;2023-04-24T01:45:32;11.10;99.90
4934;DHT22;2482;49.154;8.254;2023-04-24T01:48:00;11.20;99.90
4934;DHT22;2482;49.154;8.254;2023-04-24T01:50:28;11.10;99.90
4934;DHT22;2482;49.154;8.254;2023-04-24T01:52:55;11.10;99.90
4934;DHT22;2482;49.154;8.254;2023-04-24T01:55:22;11.00;99.90
4934;DHT22;2482;49.154;8.254;2023-04-24T01:57:49;11.10;99.90
4934;DHT22;2482;49.154;8.254;2023-04-24T02:00:18;11.10;99.90
4934;DHT22;2482;49.154;8.254;2023-04-24T02:02:45;11.00;99.90
4934;DHT22;2482;49.154;8.254;2023-04-24T02:05:14;11.00;99.90
4934;DHT22;2482;49.154;8.254;2023-04-24T02:07:41;11.10;99.90
4934;DHT22;2482;49.154;8.254;2023-04-24T02:10:09;11.10;99.90
4934;DHT22;2482;49.154;8.254;2023-04-24T02:12:37;11.20;99.90
4934;DHT22;2482;49.154;8.254;2023-04-24T02:15:04;11.30;99.90
4934;DHT22;2482;49.154;8.254;2023-04-24T02:17:31;11.30;99.90
4934;DHT22;2482;49.154;8.254;2023-04-24T02:19:59;11.20;99.90
4934;DHT22;2482;49.154;8.254;2023-04-24T02:22:26;11.20;99.90
4934;DHT22;2482;49.154;8.254;2023-04-24T02:24:53;11.20;99.90
4934;DHT22;2482;49.154;8.254;2023-04-24T02:27:19;11.20;99.90
4934;DHT22;2482;49.154;8.254;2023-04-24T02:29:46;11.30;99.90
4934;DHT22;2482;49.154;8.254;2023-04-24T02:32:13;11.30;99.90
4934;DHT22;2482;49.154;8.254;2023-04-24T02:34:42;11.20;99.90
4934;DHT22;2482;49.154;8.254;2023-04-24T02:37:09;11.20;99.90
4934;DHT22;2482;49.154;8.254;2023-04-24T02:39:36;11.10;99.90
4934;DHT22;2482;49.154;8.254;2023-04-24T02:42:03;11.00;99.90
4934;DHT22;2482;49.154;8.254;2023-04-24T02:44:30;11.00;99.90
4934;DHT22;2482;49.154;8.254;2023-04-24T02:46:57;10.90;99.90
4934;DHT22;2482;49.154;8.254;2023-04-24T02:49:24;10.90;99.90
4934;DHT22;2482;49.154;8.254;2023-04-24T02:51:51;10.90;99.90
4934;DHT22;2482;49.154;8.254;2023-04-24T02:54:18;10.60;99.90
4934;DHT22;2482;49.154;8.254;2023-04-24T02:56:45;10.20;99.90
4934;DHT22;2482;49.154;8.254;2023-04-24T02:59:12;9.90;99.90
4934;DHT22;2482;49.154;8.254;2023-04-24T03:01:39;9.80;99.90
4934;DHT22;2482;49.154;8.254;2023-04-24T03:04:06;9.70;99.90
4934;DHT22;2482;49.154;8.254;2023-04-24T03:06:33;9.70;99.90
4934;DHT22;2482;49.154;8.254;2023-04-24T03:09:02;9.70;99.90
4934;DHT22;2482;49.154;8.254;2023-04-24T03:11:30;9.60;99.90
4934;DHT22;2482;49.154;8.254;2023-04-24T03:13:57;9.60;99.90
4934;DHT22;2482;49.154;8.254;2023-04-24T03:16:24;9.70;99.90
4934;DHT22;2482;49.154;8.254;2023-04-24T03:18:51;9.70;99.90
4934;DHT22;2482;49.154;8.254;2023-04-24T03:21:18;9.70;99.90
4934;DHT22;2482;49.154;8.254;2023-04-24T03:23:45;9.80;99.90
4934;DHT22;2482;49.154;8.254;2023-04-24T03:26:13;9.90;99.90
4934;DHT22;2482;49.154;8.254;2023-04-24T03:28:39;9.90;99.90
4934;DHT22;2482;49.154;8.254;2023-04-24T03:31:07;10.00;99.90
4934;DHT22;2482;49.154;8.254;2023-04-24T03:33:34;10.00;99.90
4934;DHT22;2482;49.154;8.254;2023-04-24T03:36:02;10.00;99.90
4934;DHT22;2482;49.154;8.254;2023-04-24T03:38:31;10.00;99.90
4934;DHT22;2482;49.154;8.254;2023-04-24T03:40:58;9.90;99.90
4934;DHT22;2482;49.154;8.254;2023-04-24T03:43:25;9.80;99.90
4934;DHT22;2482;49.154;8.254;2023-04-24T03:45:53;9.80;99.90
4934;DHT22;2482;49.154;8.254;2023-04-24T03:48:20;9.70;99.90
4934;DHT22;2482;49.154;8.254;2023-04-24T03:50:47;9.60;99.90
4934;DHT22;2482;49.154;8.254;2023-04-24T03:53:14;9.50;99.90
4934;DHT22;2482;49.154;8.254;2023-04-24T03:55:41;9.50;99.90
4934;DHT22;2482;49.154;8.254;2023-04-24T03:58:08;9.50;99.90
4934;DHT22;2482;49.154;8.254;2023-04-24T04:00:35;9.50;99.90
4934;DHT22;2482;49.154;8.254;2023-04-24T04:03:04;9.50;99.90
4934;DHT22;2482;49.154;8.254;2023-04-24T04:05:31;9.40;99.90
4934;DHT22;2482;49.154;8.254;2023-04-24T04:07:58;9.40;99.90
4934;DHT22;2482;49.154;8.254;2023-04-24T04:10:25;9.40;99.90
4934;DHT22;2482;49.154;8.254;2023-04-24T04:12:53;9.30;99.90
4934;DHT22;2482;49.154;8.254;2023-04-24T04:15:21;9.30;99.90
4934;DHT22;2482;49.154;8.254;2023-04-24T04:17:47;9.30;99.90
4934;DHT22;2482;49.154;8.254;2023-04-24T04:20:15;9.20;99.90
4934;DHT22;2482;49.154;8.254;2023-04-24T04:22:41;9.30;99.90
4934;DHT22;2482;49.154;8.254;2023-04-24T04:25:10;9.30;99.90
4934;DHT22;2482;49.154;8.254;2023-04-24T04:27:38;9.30;99.90
4934;DHT22;2482;49.154;8.254;2023-04-24T04:30:05;9.30;99.90
4934;DHT22;2482;49.154;8.254;2023-04-24T04:32:34;9.30;99.90
4934;DHT22;2482;49.154;8.254;2023-04-24T04:35:01;9.30;99.90
4934;DHT22;2482;49.154;8.254;2023-04-24T04:37:32;9.30;99.90
4934;DHT22;2482;49.154;8.254;2023-04-24T04:40:00;9.20;99.90
4934;DHT22;2482;49.154;8.254;2023-04-24T04:42:27;9.20;99.90
4934;DHT22;2482;49.154;8.254;2023-04-24T04:44:54;9.10;99.90
4934;DHT22;2482;49.154;8.254;2023-04-24T04:47:24;9.30;99.90
4934;DHT22;2482;49.154;8.254;2023-04-24T04:49:51;9.40;99.90
4934;DHT22;2482;49.154;8.254;2023-04-24T04:52:18;9.40;99.90
4934;DHT22;2482;49.154;8.254;2023-04-24T04:54:46;9.50;99.90
4934;DHT22;2482;49.154;8.254;2023-04-24T04:57:13;9.50;99.90
4934;DHT22;2482;49.154;8.254;2023-04-24T04:59:39;9.60;99.90
4934;DHT22;2482;49.154;8.254;2023-04-24T05:02:08;9.70;99.90
4934;DHT22;2482;49.154;8.254;2023-04-24T05:04:35;9.70;99.90
4934;DHT22;2482;49.154;8.254;2023-04-24T05:07:02;9.90;99.90
4934;DHT22;2482;49.154;8.254;2023-04-24T05:09:29;10.00;99.90
4934;DHT22;2482;49.154;8.254;2023-04-24T05:11:56;10.10;99.90
4934;DHT22;2482;49.154;8.254;2023-04-24T05:14:23;10.30;99.90
4934;DHT22;2482;49.154;8.254;2023-04-24T05:16:50;10.40;99.90
4934;DHT22;2482;49.154;8.254;2023-04-24T05:19:17;10.50;99.90
4934;DHT22;2482;49.154;8.254;2023-04-24T05:21:44;10.50;99.90
4934;DHT22;2482;49.154;8.254;2023-04-24T05:24:12;10.70;99.90
4934;DHT22;2482;49.154;8.254;2023-04-24T05:26:38;10.90;99.90
4934;DHT22;2482;49.154;8.254;2023-04-24T05:29:05;10.90;99.90
4934;DHT22;2482;49.154;8.254;2023-04-24T05:31:32;11.00;99.90
4934;DHT22;2482;49.154;8.254;2023-04-24T05:33:59;11.00;99.90
4934;DHT22;2482;49.154;8.254;2023-04-24T05:36:27;11.00;99.90
4934;DHT22;2482;49.154;8.254;2023-04-24T05:38:54;11.00;99.90
4934;DHT22;2482;49.154;8.254;2023-04-24T05:41:21;10.80;99.90
4934;DHT22;2482;49.154;8.254;2023-04-24T05:43:49;10.90;99.90
4934;DHT22;2482;49.154;8.254;2023-04-24T05:46:16;10.60;99.90
4934;DHT22;2482;49.154;8.254;2023-04-24T05:48:43;10.50;99.90
4934;DHT22;2482;49.154;8.254;2023-04-24T05:51:10;10.30;99.90
4934;DHT22;2482;49.154;8.254;2023-04-24T05:53:37;10.10;99.90
4934;DHT22;2482;49.154;8.254;2023-04-24T05:56:04;10.10;99.90
4934;DHT22;2482;49.154;8.254;2023-04-24T05:58:31;10.00;99.90
4934;DHT22;2482;49.154;8.254;2023-04-24T06:00:58;10.10;99.90
4934;DHT22;2482;49.154;8.254;2023-04-24T06:03:27;10.10;99.90
4934;DHT22;2482;49.154;8.254;2023-04-24T06:05:55;10.10;99.90
4934;DHT22;2482;49.154;8.254;2023-04-24T06:08:22;10.20;99.90
4934;DHT22;2482;49.154;8.254;2023-04-24T06:10:49;10.20;99.90
4934;DHT22;2482;49.154;8.254;2023-04-24T06:13:16;10.30;99.90
4934;DHT22;2482;49.154;8.254;2023-04-24T06:15:43;10.40;99.90
4934;DHT22;2482;49.154;8.254;2023-04-24T06:18:11;10.40;99.90
4934;DHT22;2482;49.154;8.254;2023-04-24T06:20:39;10.50;99.90
4934;DHT22;2482;49.154;8.254;2023-04-24T06:23:06;10.50;99.90
4934;DHT22;2482;49.154;8.254;2023-04-24T06:25:33;10.50;99.90
4934;DHT22;2482;49.154;8.254;2023-04-24T06:28:00;10.60;99.90
4934;DHT22;2482;49.154;8.254;2023-04-24T06:30:28;10.70;99.90
4934;DHT22;2482;49.154;8.254;2023-04-24T06:32:55;10.90;99.90
4934;DHT22;2482;49.154;8.254;2023-04-24T06:35:31;10.90;99.90
4934;DHT22;2482;49.154;8.254;2023-04-24T06:37:58;11.00;99.90
4934;DHT22;2482;49.154;8.254;2023-04-24T06:40:25;11.00;99.90
4934;DHT22;2482;49.154;8.254;2023-04-24T06:42:52;11.20;99.90
4934;DHT22;2482;49.154;8.254;2023-04-24T06:45:19;11.30;99.90
4934;DHT22;2482;49.154;8.254;2023-04-24T06:47:47;11.40;99.90
4934;DHT22;2482;49.154;8.254;2023-04-24T06:50:13;11.40;99.90
4934;DHT22;2482;49.154;8.254;2023-04-24T06:52:41;11.30;99.90
4934;DHT22;2482;49.154;8.254;2023-04-24T06:55:08;11.10;99.90
4934;DHT22;2482;49.154;8.254;2023-04-24T06:57:35;10.90;99.90
4934;DHT22;2482;49.154;8.254;2023-04-24T07:00:03;10.80;99.90
4934;DHT22;2482;49.154;8.254;2023-04-24T07:02:31;10.50;99.90
4934;DHT22;2482;49.154;8.254;2023-04-24T07:04:58;10.30;99.90
4934;DHT22;2482;49.154;8.254;2023-04-24T07:07:25;10.10;99.90
4934;DHT22;2482;49.154;8.254;2023-04-24T07:09:53;10.00;99.90
4934;DHT22;2482;49.154;8.254;2023-04-24T07:12:20;9.80;99.90
4934;DHT22;2482;49.154;8.254;2023-04-24T07:14:48;9.80;99.90
4934;DHT22;2482;49.154;8.254;2023-04-24T07:17:15;9.60;99.90
4934;DHT22;2482;49.154;8.254;2023-04-24T07:19:42;9.50;99.90
4934;DHT22;2482;49.154;8.254;2023-04-24T07:22:10;9.50;99.90
4934;DHT22;2482;49.154;8.254;2023-04-24T07:24:44;9.50;99.90
4934;DHT22;2482;49.154;8.254;2023-04-24T07:27:11;9.70;99.90
4934;DHT22;2482;49.154;8.254;2023-04-24T07:29:41;9.70;99.90
4934;DHT22;2482;49.154;8.254;2023-04-24T07:32:09;9.80;99.90
4934;DHT22;2482;49.154;8.254;2023-04-24T07:34:36;9.80;99.90
4934;DHT22;2482;49.154;8.254;2023-04-24T07:37:03;10.10;99.90
4934;DHT22;2482;49.154;8.254;2023-04-24T07:39:30;10.60;99.90
4934;DHT22;2482;49.154;8.254;2023-04-24T07:41:58;10.70;99.90
4934;DHT22;2482;49.154;8.254;2023-04-24T07:44:26;10.70;99.90
4934;DHT22;2482;49.154;8.254;2023-04-24T07:46:53;10.90;99.90
4934;DHT22;2482;49.154;8.254;2023-04-24T07:49:20;10.80;99.90
4934;DHT22;2482;49.154;8.254;2023-04-24T07:51:48;10.90;99.90
4934;DHT22;2482;49.154;8.254;2023-04-24T07:54:16;11.20;99.90
4934;DHT22;2482;49.154;8.254;2023-04-24T07:56:43;11.30;99.90
4934;DHT22;2482;49.154;8.254;2023-04-24T07:59:11;11.30;99.90
4934;DHT22;2482;49.154;8.254;2023-04-24T08:01:38;11.50;99.90
4934;DHT22;2482;49.154;8.254;2023-04-24T08:04:05;11.90;99.90
4934;DHT22;2482;49.154;8.254;2023-04-24T08:06:32;12.10;99.90
4934;DHT22;2482;49.154;8.254;2023-04-24T08:09:00;12.10;99.90
4934;DHT22;2482;49.154;8.254;2023-04-24T08:11:27;12.10;99.90
4934;DHT22;2482;49.154;8.254;2023-04-24T08:13:54;12.10;99.90
4934;DHT22;2482;49.154;8.254;2023-04-24T08:16:22;12.00;99.90
4934;DHT22;2482;49.154;8.254;2023-04-24T08:18:50;12.00;99.90
4934;DHT22;2482;49.154;8.254;2023-04-24T08:21:18;12.00;99.90
4934;DHT22;2482;49.154;8.254;2023-04-24T08:23:45;12.00;99.90
4934;DHT22;2482;49.154;8.254;2023-04-24T08:26:13;11.90;99.90
4934;DHT22;2482;49.154;8.254;2023-04-24T08:28:40;11.80;99.90
4934;DHT22;2482;49.154;8.254;2023-04-24T08:31:07;11.80;99.90
4934;DHT22;2482;49.154;8.254;2023-04-24T08:33:34;11.80;99.90
4934;DHT22;2482;49.154;8.254;2023-04-24T08:36:05;11.80;99.90
4934;DHT22;2482;49.154;8.254;2023-04-24T08:38:33;11.80;99.90
4934;DHT22;2482;49.154;8.254;2023-04-24T08:41:01;11.80;99.90
4934;DHT22;2482;49.154;8.254;2023-04-24T08:43:28;12.10;99.90
4934;DHT22;2482;49.154;8.254;2023-04-24T08:45:56;12.40;99.90
4934;DHT22;2482;49.154;8.254;2023-04-24T08:48:24;12.60;99.90
4934;DHT22;2482;49.154;8.254;2023-04-24T08:50:58;12.70;99.90
4934;DHT22;2482;49.154;8.254;2023-04-24T08:53:26;12.80;99.90
4934;DHT22;2482;49.154;8.254;2023-04-24T08:55:55;12.40;99.90
4934;DHT22;2482;49.154;8.254;2023-04-24T08:58:25;12.00;99.90
4934;DHT22;2482;49.154;8.254;2023-04-24T09:00:57;11.90;99.90
4934;DHT22;2482;49.154;8.254;2023-04-24T09:03:27;11.80;99.90
4934;DHT22;2482;49.154;8.254;2023-04-24T09:05:55;11.60;99.90
4934;DHT22;2482;49.154;8.254;2023-04-24T09:08:25;11.40;99.90
4934;DHT22;2482;49.154;8.254;2023-04-24T09:10:53;11.20;99.90
4934;DHT22;2482;49.154;8.254;2023-04-24T09:13:20;11.00;99.90
4934;DHT22;2482;49.154;8.254;2023-04-24T09:15:47;11.00;99.90
4934;DHT22;2482;49.154;8.254;2023-04-24T09:18:14;10.90;99.90
4934;DHT22;2482;49.154;8.254;2023-04-24T09:21:06;10.90;99.90
4934;DHT22;2482;49.154;8.254;2023-04-24T09:23:38;10.90;99.90
4934;DHT22;2482;49.154;8.254;2023-04-24T09:26:09;10.90;99.90
4934;DHT22;2482;49.154;8.254;2023-04-24T09:28:40;11.00;99.90
4934;DHT22;2482;49.154;8.254;2023-04-24T09:31:15;11.40;99.90
4934;DHT22;2482;49.154;8.254;2023-04-24T09:34:05;11.80;99.90
4934;DHT22;2482;49.154;8.254;2023-04-24T09:36:36;11.80;99.90
4934;DHT22;2482;49.154;8.254;2023-04-24T09:39:06;11.90;99.90
4934;DHT22;2482;49.154;8.254;2023-04-24T09:41:35;12.40;99.90
4934;DHT22;2482;49.154;8.254;2023-04-24T09:44:33;12.70;99.90
4934;DHT22;2482;49.154;8.254;2023-04-24T09:47:01;13.00;99.90
4934;DHT22;2482;49.154;8.254;2023-04-24T09:49:29;13.20;99.90
4934;DHT22;2482;49.154;8.254;2023-04-24T09:54:39;12.90;99.90
4934;DHT22;2482;49.154;8.254;2023-04-24T09:57:09;12.70;99.90
4934;DHT22;2482;49.154;8.254;2023-04-24T09:59:42;12.60;99.90
4934;DHT22;2482;49.154;8.254;2023-04-24T10:02:18;12.40;99.90
4934;DHT22;2482;49.154;8.254;2023-04-24T10:04:57;12.10;99.90
4934;DHT22;2482;49.154;8.254;2023-04-24T10:07:26;11.90;99.90
4934;DHT22;2482;49.154;8.254;2023-04-24T10:09:54;11.70;99.90
4934;DHT22;2482;49.154;8.254;2023-04-24T10:12:21;11.40;99.90
4934;DHT22;2482;49.154;8.254;2023-04-24T10:14:49;11.30;99.90
4934;DHT22;2482;49.154;8.254;2023-04-24T10:17:17;11.40;99.90
4934;DHT22;2482;49.154;8.254;2023-04-24T10:19:47;11.20;99.90
4934;DHT22;2482;49.154;8.254;2023-04-24T10:22:15;11.20;99.90
4934;DHT22;2482;49.154;8.254;2023-04-24T10:24:45;11.30;99.90
4934;DHT22;2482;49.154;8.254;2023-04-24T10:27:14;11.30;99.90
4934;DHT22;2482;49.154;8.254;2023-04-24T10:29:43;11.40;99.90
4934;DHT22;2482;49.154;8.254;2023-04-24T10:32:11;11.50;99.90
4934;DHT22;2482;49.154;8.254;2023-04-24T10:34:38;11.50;99.90
4934;DHT22;2482;49.154;8.254;2023-04-24T10:37:05;11.50;99.90
4934;DHT22;2482;49.154;8.254;2023-04-24T10:39:32;11.50;99.90
4934;DHT22;2482;49.154;8.254;2023-04-24T10:42:00;11.70;99.90
4934;DHT22;2482;49.154;8.254;2023-04-24T10:44:36;11.80;99.90
4934;DHT22;2482;49.154;8.254;2023-04-24T10:47:03;11.90;99.90
4934;DHT22;2482;49.154;8.254;2023-04-24T10:49:31;12.00;99.90
4934;DHT22;2482;49.154;8.254;2023-04-24T10:52:02;11.80;99.90
4934;DHT22;2482;49.154;8.254;2023-04-24T10:57:29;11.80;99.90
4934;DHT22;2482;49.154;8.254;2023-04-24T11:00:21;11.70;99.90
4934;DHT22;2482;49.154;8.254;2023-04-24T11:02:48;11.50;99.90
4934;DHT22;2482;49.154;8.254;2023-04-24T11:05:19;11.40;99.90
4934;DHT22;2482;49.154;8.254;2023-04-24T11:08:12;11.30;99.90
4934;DHT22;2482;49.154;8.254;2023-04-24T11:10:45;11.10;99.90
4934;DHT22;2482;49.154;8.254;2023-04-24T11:13:17;10.90;99.90
4934;DHT22;2482;49.154;8.254;2023-04-24T11:16:13;11.00;99.90
4934;DHT22;2482;49.154;8.254;2023-04-24T11:18:42;11.20;99.90
4934;DHT22;2482;49.154;8.254;2023-04-24T11:21:13;11.50;99.90
4934;DHT22;2482;49.154;8.254;2023-04-24T11:23:40;11.70;99.90
4934;DHT22;2482;49.154;8.254;2023-04-24T11:26:12;11.70;99.90
4934;DHT22;2482;49.154;8.254;2023-04-24T11:28:47;11.90;99.90
4934;DHT22;2482;49.154;8.254;2023-04-24T11:31:44;12.50;99.90
4934;DHT22;2482;49.154;8.254;2023-04-24T11:34:20;13.00;99.90
4934;DHT22;2482;49.154;8.254;2023-04-24T11:36:47;12.50;99.90
4934;DHT22;2482;49.154;8.254;2023-04-24T11:39:14;12.40;99.90
4934;DHT22;2482;49.154;8.254;2023-04-24T11:41:41;12.40;99.90
4934;DHT22;2482;49.154;8.254;2023-04-24T11:44:09;12.70;99.90
4934;DHT22;2482;49.154;8.254;2023-04-24T11:46:38;12.90;99.90
4934;DHT22;2482;49.154;8.254;2023-04-24T11:49:07;12.90;99.90
4934;DHT22;2482;49.154;8.254;2023-04-24T11:51:34;12.50;99.90
4934;DHT22;2482;49.154;8.254;2023-04-24T11:54:18;12.50;99.90
4934;DHT22;2482;49.154;8.254;2023-04-24T11:56:47;12.40;99.90
4934;DHT22;2482;49.154;8.254;2023-04-24T11:59:14;12.30;99.90
4934;DHT22;2482;49.154;8.254;2023-04-24T12:01:49;12.30;99.90
4934;DHT22;2482;49.154;8.254;2023-04-24T12:04:17;12.20;99.90
4934;DHT22;2482;49.154;8.254;2023-04-24T12:07:04;12.20;99.90
4934;DHT22;2482;49.154;8.254;2023-04-24T12:09:46;12.30;99.90
4934;DHT22;2482;49.154;8.254;2023-04-24T12:12:18;12.20;99.90
4934;DHT22;2482;49.154;8.254;2023-04-24T12:14:49;12.20;99.90
4934;DHT22;2482;49.154;8.254;2023-04-24T12:17:25;12.20;99.90
4934;DHT22;2482;49.154;8.254;2023-04-24T12:20:06;12.40;99.90
4934;DHT22;2482;49.154;8.254;2023-04-24T12:22:54;12.50;99.90
4934;DHT22;2482;49.154;8.254;2023-04-24T12:25:26;12.60;99.90
4934;DHT22;2482;49.154;8.254;2023-04-24T12:30:33;12.80;99.90
4934;DHT22;2482;49.154;8.254;2023-04-24T12:33:03;13.20;99.90
4934;DHT22;2482;49.154;8.254;2023-04-24T12:35:32;13.30;99.90
4934;DHT22;2482;49.154;8.254;2023-04-24T12:38:07;13.20;99.90
4934;DHT22;2482;49.154;8.254;2023-04-24T12:40:40;13.40;99.90
4934;DHT22;2482;49.154;8.254;2023-04-24T12:43:15;13.80;99.90
4934;DHT22;2482;49.154;8.254;2023-04-24T12:45:49;13.80;99.90
4934;DHT22;2482;49.154;8.254;2023-04-24T12:48:16;13.50;99.90
4934;DHT22;2482;49.154;8.254;2023-04-24T12:50:43;13.50;99.90
4934;DHT22;2482;49.154;8.254;2023-04-24T12:53:15;13.50;99.90
4934;DHT22;2482;49.154;8.254;2023-04-24T12:55:43;13.60;99.90
4934;DHT22;2482;49.154;8.254;2023-04-24T12:58:12;13.80;99.90
4934;DHT22;2482;49.154;8.254;2023-04-24T13:00:40;13.80;99.90
4934;DHT22;2482;49.154;8.254;2023-04-24T13:03:10;13.90;99.90
4934;DHT22;2482;49.154;8.254;2023-04-24T13:05:37;14.30;99.90
4934;DHT22;2482;49.154;8.254;2023-04-24T13:08:04;14.40;99.90
4934;DHT22;2482;49.154;8.254;2023-04-24T13:10:31;14.20;99.90
4934;DHT22;2482;49.154;8.254;2023-04-24T13:12:59;14.50;99.90
4934;DHT22;2482;49.154;8.254;2023-04-24T13:15:26;14.90;99.90
4934;DHT22;2482;49.154;8.254;2023-04-24T13:17:53;14.90;99.90
4934;DHT22;2482;49.154;8.254;2023-04-24T13:20:20;15.00;99.90
4934;DHT22;2482;49.154;8.254;2023-04-24T13:22:47;14.70;99.90
4934;DHT22;2482;49.154;8.254;2023-04-24T13:25:14;14.90;99.90
4934;DHT22;2482;49.154;8.254;2023-04-24T13:27:43;14.80;99.90
4934;DHT22;2482;49.154;8.254;2023-04-24T13:30:11;14.50;99.90
4934;DHT22;2482;49.154;8.254;2023-04-24T13:32:38;14.00;99.90
4934;DHT22;2482;49.154;8.254;2023-04-24T13:35:05;13.80;99.90
4934;DHT22;2482;49.154;8.254;2023-04-24T13:37:32;14.00;99.90
4934;DHT22;2482;49.154;8.254;2023-04-24T13:39:59;14.00;99.90
4934;DHT22;2482;49.154;8.254;2023-04-24T13:42:27;13.70;99.90
4934;DHT22;2482;49.154;8.254;2023-04-24T13:44:54;13.60;99.90
4934;DHT22;2482;49.154;8.254;2023-04-24T13:47:21;13.60;99.90
4934;DHT22;2482;49.154;8.254;2023-04-24T13:49:48;13.40;99.90
4934;DHT22;2482;49.154;8.254;2023-04-24T13:52:16;13.30;99.90
4934;DHT22;2482;49.154;8.254;2023-04-24T13:54:43;13.50;99.90
4934;DHT22;2482;49.154;8.254;2023-04-24T13:57:11;13.80;99.90
4934;DHT22;2482;49.154;8.254;2023-04-24T13:59:38;14.00;99.90
4934;DHT22;2482;49.154;8.254;2023-04-24T14:02:05;14.30;99.90
4934;DHT22;2482;49.154;8.254;2023-04-24T14:04:32;14.80;99.90
4934;DHT22;2482;49.154;8.254;2023-04-24T14:06:59;14.90;99.90
4934;DHT22;2482;49.154;8.254;2023-04-24T14:09:27;14.80;99.90
4934;DHT22;2482;49.154;8.254;2023-04-24T14:11:54;14.50;99.90
4934;DHT22;2482;49.154;8.254;2023-04-24T14:14:22;14.20;99.90
4934;DHT22;2482;49.154;8.254;2023-04-24T14:16:51;14.10;99.90
4934;DHT22;2482;49.154;8.254;2023-04-24T14:19:18;14.20;99.90
4934;DHT22;2482;49.154;8.254;2023-04-24T14:21:46;14.30;99.90
4934;DHT22;2482;49.154;8.254;2023-04-24T14:24:13;14.10;99.90
4934;DHT22;2482;49.154;8.254;2023-04-24T14:26:40;14.20;99.90
4934;DHT22;2482;49.154;8.254;2023-04-24T14:29:09;14.00;99.90
4934;DHT22;2482;49.154;8.254;2023-04-24T14:31:41;13.80;99.90
4934;DHT22;2482;49.154;8.254;2023-04-24T14:34:09;13.50;99.90
4934;DHT22;2482;49.154;8.254;2023-04-24T14:36:36;13.50;99.90
4934;DHT22;2482;49.154;8.254;2023-04-24T14:39:03;13.40;99.90
4934;DHT22;2482;49.154;8.254;2023-04-24T14:41:34;13.40;99.90
4934;DHT22;2482;49.154;8.254;2023-04-24T14:44:03;13.30;99.90
4934;DHT22;2482;49.154;8.254;2023-04-24T14:46:30;13.30;99.90
4934;DHT22;2482;49.154;8.254;2023-04-24T14:48:57;13.30;99.90
4934;DHT22;2482;49.154;8.254;2023-04-24T14:51:25;13.20;99.90
4934;DHT22;2482;49.154;8.254;2023-04-24T14:53:52;13.30;99.90
4934;DHT22;2482;49.154;8.254;2023-04-24T14:56:19;13.20;99.90
4934;DHT22;2482;49.154;8.254;2023-04-24T14:58:46;13.30;99.90
4934;DHT22;2482;49.154;8.254;2023-04-24T15:01:13;13.40;99.90
4934;DHT22;2482;49.154;8.254;2023-04-24T15:03:42;13.50;99.90
4934;DHT22;2482;49.154;8.254;2023-04-24T15:06:12;13.50;99.90
4934;DHT22;2482;49.154;8.254;2023-04-24T15:08:40;13.50;99.90
4934;DHT22;2482;49.154;8.254;2023-04-24T15:11:07;13.40;99.90
4934;DHT22;2482;49.154;8.254;2023-04-24T15:13:35;13.30;99.90
4934;DHT22;2482;49.154;8.254;2023-04-24T15:16:03;13.40;99.90
4934;DHT22;2482;49.154;8.254;2023-04-24T15:18:30;13.40;99.90
4934;DHT22;2482;49.154;8.254;2023-04-24T15:20:57;13.30;99.90
4934;DHT22;2482;49.154;8.254;2023-04-24T15:23:24;13.00;99.90
4934;DHT22;2482;49.154;8.254;2023-04-24T15:25:51;12.90;99.90
4934;DHT22;2482;49.154;8.254;2023-04-24T15:28:19;12.60;99.90
4934;DHT22;2482;49.154;8.254;2023-04-24T15:30:45;12.50;99.90
4934;DHT22;2482;49.154;8.254;2023-04-24T15:33:13;12.10;99.90
4934;DHT22;2482;49.154;8.254;2023-04-24T15:35:40;11.80;99.90
4934;DHT22;2482;49.154;8.254;2023-04-24T15:38:07;11.70;99.90
4934;DHT22;2482;49.154;8.254;2023-04-24T15:40:35;11.80;99.90
4934;DHT22;2482;49.154;8.254;2023-04-24T15:43:02;11.90;99.90
4934;DHT22;2482;49.154;8.254;2023-04-24T15:45:29;12.00;99.90
4934;DHT22;2482;49.154;8.254;2023-04-24T15:47:56;12.00;99.90
4934;DHT22;2482;49.154;8.254;2023-04-24T15:50:23;11.90;99.90
4934;DHT22;2482;49.154;8.254;2023-04-24T15:52:50;12.10;99.90
4934;DHT22;2482;49.154;8.254;2023-04-24T15:55:17;12.50;99.90
4934;DHT22;2482;49.154;8.254;2023-04-24T15:57:44;12.80;99.90
4934;DHT22;2482;49.154;8.254;2023-04-24T16:00:12;12.60;99.90
4934;DHT22;2482;49.154;8.254;2023-04-24T16:02:39;12.30;99.90
4934;DHT22;2482;49.154;8.254;2023-04-24T16:05:07;12.50;99.90
4934;DHT22;2482;49.154;8.254;2023-04-24T16:07:34;12.70;99.90
4934;DHT22;2482;49.154;8.254;2023-04-24T16:10:03;12.90;99.90
4934;DHT22;2482;49.154;8.254;2023-04-24T16:12:30;13.00;99.90
4934;DHT22;2482;49.154;8.254;2023-04-24T16:14:57;13.10;99.90
4934;DHT22;2482;49.154;8.254;2023-04-24T16:17:24;13.20;99.90
4934;DHT22;2482;49.154;8.254;2023-04-24T16:19:51;13.30;99.90
4934;DHT22;2482;49.154;8.254;2023-04-24T16:22:19;13.30;99.90